createdAt,value
2019-05-22T00:00:00.439Z,99.90
2019-05-22T00:02:37.526Z,99.90
2019-05-22T00:05:24.193Z,99.90
2019-05-22T00:07:55.250Z,99.90
2019-05-22T00:10:28.449Z,99.90
2019-05-22T00:12:59.587Z,99.90
2019-05-22T00:15:31.758Z,99.90
2019-05-22T00:18:03.748Z,99.90
2019-05-22T00:20:33.639Z,99.90
2019-05-22T00:23:07.332Z,99.90
2019-05-22T00:25:37.767Z,99.90
2019-05-22T00:28:08.172Z,99.90
2019-05-22T00:30:39.814Z,99.90
2019-05-22T00:33:11.245Z,99.90
2019-05-22T00:35:42.062Z,99.90
2019-05-22T00:38:11.982Z,99.90
2019-05-22T00:40:51.130Z,99.90
2019-05-22T00:43:29.948Z,99.90
2019-05-22T00:46:03.541Z,99.90
2019-05-22T00:48:35.393Z,99.90
2019-05-22T00:51:21.916Z,99.90
2019-05-22T00:54:09.702Z,99.90
2019-05-22T00:56:45.911Z,99.90
2019-05-22T00:59:26.768Z,99.90
2019-05-22T01:02:02.481Z,99.90
2019-05-22T01:04:37.959Z,99.90
2019-05-22T01:07:18.267Z,99.90
2019-05-22T01:09:49.103Z,99.90
2019-05-22T01:12:27.016Z,99.90
2019-05-22T01:15:00.171Z,99.90
2019-05-22T01:17:33.704Z,99.90
2019-05-22T01:20:05.810Z,99.90
2019-05-22T01:22:37.122Z,99.90
2019-05-22T01:25:10.517Z,99.90
2019-05-22T01:27:42.147Z,99.90
2019-05-22T01:30:19.220Z,99.90
2019-05-22T01:32:50.263Z,99.90
2019-05-22T01:35:23.070Z,99.90
2019-05-22T01:37:54.696Z,99.90
2019-05-22T01:40:50.481Z,99.90
2019-05-22T01:43:23.690Z,99.90
2019-05-22T01:45:52.559Z,99.90
2019-05-22T01:48:27.379Z,99.90
2019-05-22T01:50:57.928Z,99.90
2019-05-22T01:53:36.135Z,99.90
2019-05-22T01:56:11.211Z,99.90
2019-05-22T01:58:43.644Z,99.90
2019-05-22T02:01:19.202Z,99.90
2019-05-22T02:03:50.698Z,99.90
2019-05-22T02:06:23.157Z,99.90
2019-05-22T02:09:03.583Z,99.90
2019-05-22T02:11:33.758Z,99.90
2019-05-22T02:14:10.179Z,99.90
2019-05-22T02:16:55.991Z,99.90
2019-05-22T02:19:16.564Z,99.90
2019-05-22T02:21:47.702Z,99.90
2019-05-22T02:24:18.413Z,99.90
2019-05-22T02:26:48.795Z,99.90
2019-05-22T02:29:21.360Z,99.90
2019-05-22T02:31:55.590Z,99.90
2019-05-22T02:34:24.853Z,99.90
2019-05-22T02:36:56.072Z,99.90
2019-05-22T02:39:35.160Z,99.90
2019-05-22T02:42:12.281Z,99.90
2019-05-22T02:44:42.760Z,99.90
2019-05-22T02:47:19.612Z,99.90
2019-05-22T02:49:50.124Z,99.90
2019-05-22T02:52:22.173Z,99.90
2019-05-22T02:54:52.091Z,99.90
2019-05-22T02:57:23.127Z,99.90
2019-05-22T02:59:52.796Z,99.90
2019-05-22T03:02:24.141Z,99.90
2019-05-22T03:05:03.251Z,99.90
2019-05-22T03:07:33.760Z,99.90
2019-05-22T03:10:05.793Z,99.90
2019-05-22T03:12:41.256Z,99.90
2019-05-22T03:15:17.896Z,99.90
2019-05-22T03:17:50.077Z,99.90
2019-05-22T03:20:23.198Z,99.90
2019-05-22T03:23:11.312Z,99.90
2019-05-22T03:25:43.504Z,99.90
2019-05-22T03:28:13.796Z,99.90
2019-05-22T03:30:45.317Z,99.90
2019-05-22T03:33:16.377Z,99.90
2019-05-22T03:35:49.510Z,99.90
2019-05-22T03:38:20.339Z,99.90
2019-05-22T03:40:52.058Z,99.90
2019-05-22T03:43:24.444Z,99.90
2019-05-22T03:45:57.049Z,99.90
2019-05-22T03:48:30.296Z,99.90
2019-05-22T03:51:12.381Z,99.90
2019-05-22T03:53:43.934Z,99.90
2019-05-22T03:56:15.047Z,99.90
2019-05-22T03:58:45.175Z,99.90
2019-05-22T04:01:15.205Z,99.90
2019-05-22T04:03:45.666Z,99.90
2019-05-22T04:06:17.532Z,99.90
2019-05-22T04:08:50.818Z,99.90
2019-05-22T04:11:22.761Z,99.90
2019-05-22T04:13:53.489Z,99.90
2019-05-22T04:16:26.440Z,99.90
2019-05-22T04:18:57.842Z,99.90
2019-05-22T04:21:29.295Z,99.90
2019-05-22T04:24:00.084Z,99.90
2019-05-22T04:26:30.585Z,99.90
2019-05-22T04:29:02.246Z,99.90
2019-05-22T04:31:41.963Z,99.90
2019-05-22T04:34:12.798Z,99.90
2019-05-22T04:36:55.119Z,99.90
2019-05-22T04:39:29.628Z,99.90
2019-05-22T04:42:00.839Z,99.90
2019-05-22T04:44:31.624Z,99.90
2019-05-22T04:47:02.194Z,99.90
2019-05-22T04:49:32.868Z,99.90
2019-05-22T04:52:03.428Z,99.90
2019-05-22T04:54:33.134Z,99.90
2019-05-22T04:57:04.401Z,99.90
2019-05-22T04:59:34.756Z,99.90
2019-05-22T05:02:05.218Z,99.90
2019-05-22T05:04:36.117Z,99.90
2019-05-22T05:07:06.952Z,99.90
2019-05-22T05:09:37.019Z,99.90
2019-05-22T05:12:08.639Z,99.90
2019-05-22T05:14:39.459Z,99.90
2019-05-22T05:17:09.819Z,99.90
2019-05-22T05:19:40.208Z,99.90
2019-05-22T05:22:11.442Z,99.90
2019-05-22T05:24:41.863Z,99.90
2019-05-22T05:27:12.320Z,99.90
2019-05-22T05:29:42.194Z,99.90
2019-05-22T05:32:12.354Z,99.90
2019-05-22T05:34:51.964Z,99.90
2019-05-22T05:37:24.040Z,99.90
2019-05-22T05:40:21.150Z,99.90
2019-05-22T05:42:50.967Z,99.90
2019-05-22T05:45:24.787Z,99.90
2019-05-22T05:47:55.799Z,99.90
2019-05-22T05:50:38.876Z,99.90
2019-05-22T05:52:59.844Z,99.90
2019-05-22T05:55:41.518Z,99.90
2019-05-22T05:58:32.129Z,99.90
2019-05-22T06:01:10.446Z,99.90
2019-05-22T06:03:41.591Z,99.90
2019-05-22T06:07:00.524Z,99.90
2019-05-22T06:09:29.568Z,99.90
2019-05-22T06:12:05.474Z,99.90
2019-05-22T06:14:35.856Z,99.90
2019-05-22T06:18:02.659Z,99.90
2019-05-22T06:20:33.190Z,99.90
2019-05-22T06:23:50.702Z,99.90
2019-05-22T06:26:47.247Z,99.90
2019-05-22T06:29:17.138Z,99.90
2019-05-22T06:31:57.617Z,99.90
2019-05-22T06:34:27.562Z,99.90
2019-05-22T06:37:02.478Z,99.90
2019-05-22T06:39:33.295Z,99.90
2019-05-22T06:42:06.083Z,99.90
2019-05-22T06:44:39.575Z,99.90
2019-05-22T06:47:13.160Z,99.90
2019-05-22T06:49:44.421Z,99.90
2019-05-22T06:52:15.107Z,99.90
2019-05-22T06:54:45.289Z,99.90
2019-05-22T06:57:31.992Z,99.90
2019-05-22T07:00:14.282Z,99.90
2019-05-22T07:02:38.460Z,99.90
2019-05-22T07:05:09.204Z,99.90
2019-05-22T07:07:42.172Z,99.90
2019-05-22T07:10:15.998Z,99.90
2019-05-22T07:12:50.343Z,99.90
2019-05-22T07:15:49.902Z,99.90
2019-05-22T07:18:22.495Z,99.90
2019-05-22T07:20:54.490Z,99.90
2019-05-22T07:23:27.583Z,99.90
2019-05-22T07:25:58.519Z,99.90
2019-05-22T07:28:28.960Z,99.90
2019-05-22T07:30:59.274Z,99.90
2019-05-22T07:33:29.161Z,99.90
2019-05-22T07:36:09.947Z,99.90
2019-05-22T07:38:31.031Z,99.90
2019-05-22T07:41:01.598Z,99.90
2019-05-22T07:43:31.440Z,99.90
2019-05-22T07:46:01.762Z,99.90
2019-05-22T07:48:31.670Z,99.90
2019-05-22T07:51:04.695Z,99.90
2019-05-22T07:53:34.466Z,99.90
2019-05-22T07:56:09.519Z,99.90
2019-05-22T07:58:39.790Z,99.90
2019-05-22T08:01:13.664Z,99.90
2019-05-22T08:03:45.630Z,99.90
2019-05-22T08:06:16.111Z,99.90
2019-05-22T08:08:48.144Z,99.90
2019-05-22T08:11:19.737Z,99.90
2019-05-22T08:13:51.492Z,99.90
2019-05-22T08:16:21.590Z,99.90
2019-05-22T08:18:51.867Z,99.90
2019-05-22T08:21:23.574Z,99.90
2019-05-22T08:23:55.748Z,99.90
2019-05-22T08:26:25.590Z,99.90
2019-05-22T08:28:55.375Z,99.90
2019-05-22T08:31:26.027Z,99.90
2019-05-22T08:33:56.646Z,99.90
2019-05-22T08:36:26.915Z,99.90
2019-05-22T08:38:58.174Z,99.90
2019-05-22T08:41:32.713Z,99.90
2019-05-22T08:44:16.167Z,99.90
2019-05-22T08:46:34.520Z,99.90
2019-05-22T08:49:04.696Z,99.90
2019-05-22T08:51:34.623Z,99.90
2019-05-22T08:54:06.129Z,99.90
2019-05-22T08:56:39.100Z,99.90
2019-05-22T08:59:18.868Z,99.90
2019-05-22T09:01:40.531Z,99.90
2019-05-22T09:04:10.390Z,99.90
2019-05-22T09:06:40.543Z,99.90
2019-05-22T09:09:10.517Z,99.90
2019-05-22T09:11:40.368Z,99.90
2019-05-22T09:14:10.196Z,99.90
2019-05-22T09:16:40.060Z,99.90
2019-05-22T09:19:10.332Z,99.90
2019-05-22T09:21:41.306Z,99.90
2019-05-22T09:24:14.327Z,99.90
2019-05-22T09:26:44.742Z,99.90
2019-05-22T09:29:15.726Z,99.90
2019-05-22T09:31:45.570Z,99.90
2019-05-22T09:34:16.835Z,99.90
2019-05-22T09:36:46.676Z,99.90
2019-05-22T09:39:16.662Z,99.90
2019-05-22T09:41:47.395Z,99.90
2019-05-22T09:44:17.455Z,99.90
2019-05-22T09:46:47.364Z,99.90
2019-05-22T09:49:17.575Z,99.90
2019-05-22T09:51:47.703Z,99.90
2019-05-22T09:54:17.863Z,99.90
2019-05-22T09:56:48.596Z,99.90
2019-05-22T09:59:18.350Z,99.90
2019-05-22T10:01:48.121Z,99.90
2019-05-22T10:04:18.373Z,99.90
2019-05-22T10:06:49.583Z,99.90
2019-05-22T10:09:19.364Z,99.90
2019-05-22T10:11:49.522Z,99.90
2019-05-22T10:14:19.803Z,99.90
2019-05-22T10:16:49.468Z,99.90
2019-05-22T10:19:19.338Z,99.90
2019-05-22T10:21:52.646Z,99.90
2019-05-22T10:24:29.135Z,99.90
2019-05-22T10:26:59.212Z,99.90
2019-05-22T10:29:32.104Z,99.90
2019-05-22T10:32:01.235Z,99.90
2019-05-22T10:34:31.140Z,99.90
2019-05-22T10:37:01.097Z,99.90
2019-05-22T10:39:32.535Z,99.90
2019-05-22T10:42:02.807Z,99.90
2019-05-22T10:44:32.806Z,99.90
2019-05-22T10:47:03.135Z,99.90
2019-05-22T10:49:32.973Z,99.90
2019-05-22T10:52:02.935Z,99.90
2019-05-22T10:54:33.107Z,99.90
2019-05-22T10:57:03.332Z,99.90
2019-05-22T10:59:33.483Z,99.90
2019-05-22T11:02:03.919Z,99.90
2019-05-22T11:04:33.739Z,99.90
2019-05-22T11:07:04.675Z,99.90
2019-05-22T11:09:34.599Z,99.90
2019-05-22T11:12:05.551Z,99.90
2019-05-22T11:14:35.708Z,99.90
2019-05-22T11:17:06.539Z,99.90
2019-05-22T11:19:36.465Z,99.90
2019-05-22T11:22:06.252Z,99.90
2019-05-22T11:24:36.063Z,99.90
2019-05-22T11:27:08.416Z,99.90
2019-05-22T11:29:38.698Z,99.90
2019-05-22T11:32:08.595Z,99.90
2019-05-22T11:34:38.505Z,99.90
2019-05-22T11:37:09.081Z,99.90
2019-05-22T11:39:42.605Z,99.90
2019-05-22T11:42:12.945Z,99.90
2019-05-22T11:44:42.771Z,99.90
2019-05-22T11:47:13.794Z,99.90
2019-05-22T11:49:43.557Z,99.90
2019-05-22T11:52:14.132Z,99.90
2019-05-22T11:54:44.710Z,99.90
2019-05-22T11:57:15.061Z,99.90
2019-05-22T11:59:46.151Z,99.90
2019-05-22T12:02:16.833Z,99.90
2019-05-22T12:04:48.774Z,99.90
2019-05-22T12:07:18.699Z,99.90
2019-05-22T12:09:48.495Z,99.90
2019-05-22T12:12:18.751Z,99.90
2019-05-22T12:14:48.441Z,99.90
2019-05-22T12:17:34.794Z,99.90
2019-05-22T12:19:50.334Z,99.90
2019-05-22T12:22:20.214Z,99.90
2019-05-22T12:24:49.990Z,99.90
2019-05-22T12:27:19.910Z,99.90
2019-05-22T12:29:50.939Z,99.90
2019-05-22T12:32:20.745Z,99.90
2019-05-22T12:34:50.442Z,99.90
2019-05-22T12:37:20.307Z,99.90
2019-05-22T12:39:50.677Z,99.90
2019-05-22T12:42:20.620Z,99.90
2019-05-22T12:44:50.979Z,99.90
2019-05-22T12:47:22.888Z,99.90
2019-05-22T12:49:52.785Z,99.90
2019-05-22T12:52:23.362Z,99.90
2019-05-22T12:54:53.336Z,99.90
2019-05-22T12:57:23.708Z,99.90
2019-05-22T12:59:54.583Z,99.90
2019-05-22T13:02:24.370Z,99.90
2019-05-22T13:04:54.304Z,99.90
2019-05-22T13:07:25.151Z,99.90
2019-05-22T13:09:55.980Z,99.90
2019-05-22T13:12:25.823Z,99.90
2019-05-22T13:15:09.039Z,99.90
2019-05-22T13:17:28.446Z,99.90
2019-05-22T13:19:58.982Z,99.90
2019-05-22T13:22:30.513Z,99.90
2019-05-22T13:25:02.820Z,99.90
2019-05-22T13:27:34.675Z,99.90
2019-05-22T13:30:07.813Z,99.90
2019-05-22T13:32:37.631Z,99.90
2019-05-22T13:35:09.179Z,99.90
2019-05-22T13:37:39.631Z,99.90
2019-05-22T13:40:26.746Z,99.90
2019-05-22T13:42:42.675Z,99.90
2019-05-22T13:45:28.671Z,99.90
2019-05-22T13:47:45.944Z,99.90
2019-05-22T13:50:17.536Z,99.90
2019-05-22T13:52:49.092Z,99.90
2019-05-22T13:55:20.551Z,99.90
2019-05-22T13:57:51.391Z,99.90
2019-05-22T14:00:23.261Z,99.90
2019-05-22T14:02:53.334Z,99.90
2019-05-22T14:05:24.963Z,99.90
2019-05-22T14:07:54.798Z,99.90
2019-05-22T14:10:26.905Z,99.90
2019-05-22T14:12:57.180Z,99.90
2019-05-22T14:15:48.271Z,99.90
2019-05-22T14:18:01.639Z,96.10
2019-05-22T14:20:31.576Z,96.90
2019-05-22T14:23:01.621Z,94.80
2019-05-22T14:25:32.043Z,94.50
2019-05-22T14:28:01.828Z,90.80
2019-05-22T14:30:35.069Z,83.20
2019-05-22T14:33:06.173Z,82.30
2019-05-22T14:35:48.112Z,76.00
2019-05-22T14:38:15.552Z,71.60
2019-05-22T14:40:45.494Z,68.80
2019-05-22T14:43:15.333Z,67.20
2019-05-22T14:45:45.562Z,63.20
2019-05-22T14:48:16.939Z,64.90
2019-05-22T14:50:46.728Z,63.10
2019-05-22T14:53:17.831Z,61.40
2019-05-22T14:55:49.636Z,56.70
2019-05-22T14:58:21.264Z,53.60
2019-05-22T15:00:52.924Z,51.90
2019-05-22T15:03:24.042Z,51.70
2019-05-22T15:05:55.262Z,50.90
2019-05-22T15:08:25.249Z,50.90
2019-05-22T15:10:55.815Z,52.70
2019-05-22T15:13:26.543Z,52.80
2019-05-22T15:15:56.431Z,53.10
2019-05-22T15:18:26.255Z,49.70
2019-05-22T15:21:07.356Z,49.30
2019-05-22T15:23:38.271Z,49.50
2019-05-22T15:26:09.133Z,49.30
2019-05-22T15:28:39.872Z,48.90
2019-05-22T15:31:09.742Z,51.30
2019-05-22T15:33:40.379Z,49.30
2019-05-22T15:36:13.512Z,50.00
2019-05-22T15:38:44.291Z,48.70
2019-05-22T15:41:15.280Z,48.70
2019-05-22T15:43:52.100Z,48.80
2019-05-22T15:46:19.949Z,50.00
2019-05-22T15:48:51.598Z,49.20
2019-05-22T15:51:25.999Z,48.60
2019-05-22T15:53:59.714Z,48.00
2019-05-22T15:56:31.734Z,47.80
2019-05-22T15:59:05.135Z,47.20
2019-05-22T16:01:36.656Z,47.80
2019-05-22T16:04:10.044Z,46.20
2019-05-22T16:06:40.598Z,47.80
2019-05-22T16:09:14.053Z,46.50
2019-05-22T16:11:45.358Z,46.20
2019-05-22T16:14:15.859Z,48.90
2019-05-22T16:16:48.742Z,50.50
2019-05-22T16:19:21.803Z,52.10
2019-05-22T16:21:53.227Z,54.10
2019-05-22T16:24:23.538Z,55.20
2019-05-22T16:26:53.448Z,56.10
2019-05-22T16:29:25.367Z,56.20
2019-05-22T16:31:55.977Z,57.70
2019-05-22T16:34:28.540Z,57.90
2019-05-22T16:37:03.224Z,57.30
2019-05-22T16:39:30.958Z,58.10
2019-05-22T16:42:00.890Z,57.70
2019-05-22T16:44:31.995Z,57.20
2019-05-22T16:47:04.546Z,56.50
2019-05-22T16:49:34.760Z,56.70
2019-05-22T16:52:08.970Z,54.90
2019-05-22T16:54:40.703Z,55.00
2019-05-22T16:57:11.876Z,53.10
2019-05-22T16:59:42.781Z,54.20
2019-05-22T17:02:14.664Z,54.40
2019-05-22T17:04:44.980Z,55.40
2019-05-22T17:07:15.764Z,56.00
2019-05-22T17:09:47.341Z,55.10
2019-05-22T17:12:19.379Z,55.20
2019-05-22T17:14:49.423Z,55.50
2019-05-22T17:17:20.364Z,57.20
2019-05-22T17:19:50.692Z,57.90
2019-05-22T17:22:20.956Z,59.00
2019-05-22T17:24:51.764Z,59.90
2019-05-22T17:27:22.615Z,57.50
2019-05-22T17:29:52.659Z,56.70
2019-05-22T17:32:25.227Z,56.50
2019-05-22T17:34:55.439Z,57.40
2019-05-22T17:37:26.586Z,57.30
2019-05-22T17:39:56.632Z,58.00
2019-05-22T17:42:28.072Z,58.00
2019-05-22T17:44:58.379Z,58.00
2019-05-22T17:47:29.309Z,59.40
2019-05-22T17:50:01.420Z,63.00
2019-05-22T17:52:31.823Z,61.10
2019-05-22T17:55:02.297Z,61.40
2019-05-22T17:57:33.160Z,62.50
2019-05-22T18:00:05.904Z,63.30
2019-05-22T18:02:36.345Z,64.00
2019-05-22T18:05:07.277Z,65.70
2019-05-22T18:07:38.563Z,67.30
2019-05-22T18:10:09.237Z,70.70
2019-05-22T18:12:39.748Z,69.80
2019-05-22T18:15:10.890Z,70.40
2019-05-22T18:17:41.034Z,71.70
2019-05-22T18:20:11.360Z,73.90
2019-05-22T18:22:41.158Z,73.90
2019-05-22T18:25:11.823Z,72.60
2019-05-22T18:27:41.963Z,74.50
2019-05-22T18:30:12.541Z,76.40
2019-05-22T18:32:42.653Z,75.50
2019-05-22T18:35:14.227Z,78.20
2019-05-22T18:37:44.159Z,76.40
2019-05-22T18:40:14.495Z,76.80
2019-05-22T18:42:44.372Z,78.30
2019-05-22T18:45:14.594Z,79.70
2019-05-22T18:47:44.663Z,80.20
2019-05-22T18:50:15.367Z,81.00
2019-05-22T18:52:48.554Z,80.80
2019-05-22T18:55:18.927Z,81.10
2019-05-22T18:57:48.894Z,81.70
2019-05-22T19:00:22.315Z,82.20
2019-05-22T19:02:52.187Z,82.70
2019-05-22T19:05:26.120Z,82.30
2019-05-22T19:07:56.384Z,83.50
2019-05-22T19:10:26.925Z,85.60
2019-05-22T19:12:57.763Z,87.00
2019-05-22T19:15:27.977Z,88.00
2019-05-22T19:17:57.970Z,88.10
2019-05-22T19:20:27.964Z,87.10
2019-05-22T19:23:00.881Z,88.50
2019-05-22T19:25:29.851Z,90.80
2019-05-22T19:27:59.559Z,91.40
2019-05-22T19:30:29.900Z,93.20
2019-05-22T19:33:00.144Z,94.60
2019-05-22T19:35:30.091Z,96.80
2019-05-22T19:38:00.674Z,99.90
2019-05-22T19:40:30.978Z,99.90
2019-05-22T19:43:01.279Z,99.90
2019-05-22T19:45:34.719Z,99.90
2019-05-22T19:48:05.687Z,99.90
2019-05-22T19:50:35.598Z,99.90
2019-05-22T19:53:18.148Z,99.90
2019-05-22T19:55:37.016Z,99.90
2019-05-22T19:58:07.143Z,99.90
2019-05-22T20:00:38.186Z,99.90
2019-05-22T20:03:08.699Z,99.90
2019-05-22T20:05:39.958Z,99.90
2019-05-22T20:08:10.216Z,99.90
2019-05-22T20:10:40.804Z,99.90
2019-05-22T20:13:12.768Z,99.90
2019-05-22T20:15:42.862Z,99.90
2019-05-22T20:18:13.483Z,99.90
2019-05-22T20:20:43.342Z,99.90
2019-05-22T20:23:13.970Z,99.90
2019-05-22T20:25:44.144Z,99.90
2019-05-22T20:28:14.972Z,99.90
2019-05-22T20:30:45.335Z,99.90
2019-05-22T20:33:16.263Z,99.90
2019-05-22T20:35:46.107Z,99.90
2019-05-22T20:38:16.110Z,99.90
2019-05-22T20:40:46.735Z,99.90
2019-05-22T20:43:16.586Z,99.90
2019-05-22T20:45:49.226Z,99.90
2019-05-22T20:48:27.946Z,99.90
2019-05-22T20:50:59.778Z,99.90
2019-05-22T20:53:32.634Z,99.90
2019-05-22T20:56:03.462Z,99.90
2019-05-22T20:58:35.898Z,99.90
2019-05-22T21:01:07.538Z,99.90
2019-05-22T21:03:37.800Z,99.90
2019-05-22T21:06:11.319Z,99.90
2019-05-22T21:08:43.260Z,99.90
2019-05-22T21:11:16.554Z,99.90
2019-05-22T21:13:46.641Z,99.90
2019-05-22T21:16:17.174Z,99.90
2019-05-22T21:18:51.692Z,99.90
2019-05-22T21:21:23.599Z,99.90
2019-05-22T21:24:09.335Z,99.90
2019-05-22T21:26:26.318Z,99.90
2019-05-22T21:28:56.951Z,99.90
2019-05-22T21:31:26.906Z,99.90
2019-05-22T21:33:57.833Z,99.90
2019-05-22T21:36:29.450Z,99.90
2019-05-22T21:39:00.112Z,99.90
2019-05-22T21:41:30.034Z,99.90
2019-05-22T21:43:59.907Z,99.90
2019-05-22T21:46:29.963Z,99.90
2019-05-22T21:48:59.920Z,99.90
2019-05-22T21:51:30.359Z,99.90
2019-05-22T21:54:00.159Z,99.90
2019-05-22T21:56:31.107Z,99.90
2019-05-22T21:59:01.208Z,99.90
2019-05-22T22:01:50.367Z,99.90
2019-05-22T22:04:21.503Z,99.90
2019-05-22T22:06:53.690Z,99.90
2019-05-22T22:09:25.875Z,99.90
2019-05-22T22:11:57.059Z,99.90
2019-05-22T22:14:27.490Z,99.90
2019-05-22T22:16:57.667Z,99.90
2019-05-22T22:19:30.162Z,99.90
2019-05-22T22:22:00.523Z,99.90
2019-05-22T22:24:31.095Z,99.90
2019-05-22T22:27:01.640Z,99.90
2019-05-22T22:29:31.843Z,99.90
2019-05-22T22:32:02.565Z,99.90
2019-05-22T22:34:44.568Z,99.90
2019-05-22T22:37:14.905Z,99.90
2019-05-22T22:39:49.764Z,99.90
2019-05-22T22:42:21.785Z,99.90
2019-05-22T22:44:54.287Z,99.90
2019-05-22T22:47:35.133Z,99.90
2019-05-22T22:50:07.269Z,99.90
2019-05-22T22:52:37.711Z,99.90
2019-05-22T22:55:11.007Z,99.90
2019-05-22T22:57:40.787Z,99.90
2019-05-22T23:00:13.989Z,99.90
2019-05-22T23:02:44.183Z,99.90
2019-05-22T23:05:16.035Z,99.90
2019-05-22T23:07:47.452Z,99.90
2019-05-22T23:10:18.987Z,99.90
2019-05-22T23:12:48.820Z,99.90
2019-05-22T23:15:19.393Z,99.90
2019-05-22T23:17:50.526Z,99.90
2019-05-22T23:20:19.662Z,99.90
2019-05-22T23:22:48.127Z,99.90
2019-05-22T23:25:19.430Z,99.90
2019-05-22T23:27:51.098Z,99.90
2019-05-22T23:30:21.088Z,99.90
2019-05-22T23:32:52.152Z,99.90
2019-05-22T23:35:24.592Z,99.90
2019-05-22T23:37:54.820Z,99.90
2019-05-22T23:40:29.504Z,99.90
2019-05-22T23:43:01.859Z,99.90
2019-05-22T23:45:32.085Z,99.90
2019-05-22T23:48:14.121Z,99.90
2019-05-22T23:50:44.543Z,99.90
2019-05-22T23:53:16.188Z,99.90
2019-05-22T23:55:46.420Z,99.90
2019-05-22T23:58:17.754Z,99.90
